Skipperville, Alabama
Current Conditions -  °F | °C
As of 10:53 AM on Monday 22 Dec 2014 (Local Time) from KHEY Reporting Station
Light Rain Light Rain  
Wind Chill: 51°   Ceiling: 300
Heat Index: 51°   Visibility: 6mi
Dew Point: 50°   Wind: 5mph
Humidity: 96%   Direction: 30°NNE
Pressure: 29.97"   Gusts: NA
Location:  31.56°N, 85.55°W
Report Text: KHEY 221653Z AUTO 03004KT 6SM -RA BR OVC003 11/10 A2997 RMK AO2 SLP137 P0003 T01060100
Loading
Personal Weather Stations






























Interactive Weather Map New forecast layout! Learn more

10-Day Weather Forecast

Advertisements
Track Severe Weather on mobile